sensor_id;sensor_type;location;lat;lon;timestamp;pressure;altitude;pressure_sealevel;temperature;humidity
75196;BME280;63773;42.282;22.782;2023-04-15T00:01:00;95745.56;;;7.81;73.70
75196;BME280;63773;42.282;22.782;2023-04-15T00:03:26;95751.75;;;7.71;73.56
75196;BME280;63773;42.282;22.782;2023-04-15T00:05:52;95756.09;;;7.67;73.72
75196;BME280;63773;42.282;22.782;2023-04-15T00:08:18;95723.50;;;7.40;73.23
75196;BME280;63773;42.282;22.782;2023-04-15T00:10:44;95727.06;;;7.46;73.87
75196;BME280;63773;42.282;22.782;2023-04-15T00:13:11;95727.25;;;7.34;73.86
75196;BME280;63773;42.282;22.782;2023-04-15T00:15:36;95755.13;;;7.46;73.59
75196;BME280;63773;42.282;22.782;2023-04-15T00:18:23;95743.41;;;7.46;74.01
75196;BME280;63773;42.282;22.782;2023-04-15T00:20:48;95759.31;;;7.59;73.71
75196;BME280;63773;42.282;22.782;2023-04-15T00:23:14;95768.56;;;7.58;73.01
75196;BME280;63773;42.282;22.782;2023-04-15T00:25:39;95751.97;;;7.28;74.41
75196;BME280;63773;42.282;22.782;2023-04-15T00:28:05;95759.38;;;6.79;75.70
75196;BME280;63773;42.282;22.782;2023-04-15T00:30:30;95762.03;;;6.74;75.20
75196;BME280;63773;42.282;22.782;2023-04-15T00:32:55;95784.81;;;6.94;75.52
75196;BME280;63773;42.282;22.782;2023-04-15T00:35:21;95732.56;;;6.39;76.09
75196;BME280;63773;42.282;22.782;2023-04-15T00:37:48;95688.47;;;6.10;75.70
75196;BME280;63773;42.282;22.782;2023-04-15T00:42:51;95757.84;;;6.88;75.40
75196;BME280;63773;42.282;22.782;2023-04-15T00:45:17;95761.63;;;6.87;75.42
75196;BME280;63773;42.282;22.782;2023-04-15T00:47:43;95769.66;;;6.98;74.33
75196;BME280;63773;42.282;22.782;2023-04-15T00:50:09;95763.38;;;6.98;74.18
75196;BME280;63773;42.282;22.782;2023-04-15T00:52:35;95767.75;;;6.99;73.45
75196;BME280;63773;42.282;22.782;2023-04-15T00:55:01;95769.69;;;7.04;73.26
75196;BME280;63773;42.282;22.782;2023-04-15T00:57:29;95772.06;;;6.95;73.15
75196;BME280;63773;42.282;22.782;2023-04-15T00:59:55;95766.06;;;6.93;73.54
75196;BME280;63773;42.282;22.782;2023-04-15T01:02:21;95755.50;;;6.26;74.42
75196;BME280;63773;42.282;22.782;2023-04-15T01:04:46;95773.25;;;6.34;74.52
75196;BME280;63773;42.282;22.782;2023-04-15T01:07:12;95786.03;;;6.33;74.56
75196;BME280;63773;42.282;22.782;2023-04-15T01:09:37;95752.41;;;6.18;75.21
75196;BME280;63773;42.282;22.782;2023-04-15T01:12:03;95783.84;;;5.92;75.99
75196;BME280;63773;42.282;22.782;2023-04-15T01:14:29;95783.59;;;6.15;75.39
75196;BME280;63773;42.282;22.782;2023-04-15T01:16:54;95782.78;;;6.15;75.07
75196;BME280;63773;42.282;22.782;2023-04-15T01:19:20;95738.50;;;5.93;75.36
75196;BME280;63773;42.282;22.782;2023-04-15T01:21:46;95766.72;;;6.13;74.68
75196;BME280;63773;42.282;22.782;2023-04-15T01:24:12;95772.16;;;6.13;74.24
75196;BME280;63773;42.282;22.782;2023-04-15T01:26:40;95760.25;;;6.14;74.30
75196;BME280;63773;42.282;22.782;2023-04-15T01:29:06;95770.28;;;6.14;74.05
75196;BME280;63773;42.282;22.782;2023-04-15T01:31:32;95764.41;;;6.22;73.74
75196;BME280;63773;42.282;22.782;2023-04-15T01:33:58;95767.44;;;6.25;73.38
75196;BME280;63773;42.282;22.782;2023-04-15T01:36:23;95762.00;;;6.04;74.10
75196;BME280;63773;42.282;22.782;2023-04-15T01:38:49;95771.00;;;5.88;74.04
75196;BME280;63773;42.282;22.782;2023-04-15T01:41:15;95770.75;;;5.89;74.00
75196;BME280;63773;42.282;22.782;2023-04-15T01:43:41;95773.22;;;5.91;75.13
75196;BME280;63773;42.282;22.782;2023-04-15T01:46:06;95749.84;;;5.90;73.94
75196;BME280;63773;42.282;22.782;2023-04-15T01:48:32;95771.81;;;5.88;73.62
75196;BME280;63773;42.282;22.782;2023-04-15T01:50:58;95756.19;;;5.95;73.22
75196;BME280;63773;42.282;22.782;2023-04-15T01:53:24;95726.56;;;5.77;74.05
75196;BME280;63773;42.282;22.782;2023-04-15T01:55:50;95779.97;;;5.88;74.35
75196;BME280;63773;42.282;22.782;2023-04-15T01:58:16;95769.00;;;5.83;75.18
75196;BME280;63773;42.282;22.782;2023-04-15T02:00:42;95773.47;;;5.72;74.74
75196;BME280;63773;42.282;22.782;2023-04-15T02:03:08;95749.69;;;5.63;75.16
75196;BME280;63773;42.282;22.782;2023-04-15T02:05:34;95770.66;;;5.84;74.95
75196;BME280;63773;42.282;22.782;2023-04-15T02:07:59;95738.81;;;5.79;74.56
75196;BME280;63773;42.282;22.782;2023-04-15T02:10:25;95762.75;;;5.82;74.23
75196;BME280;63773;42.282;22.782;2023-04-15T02:12:51;95767.69;;;5.69;74.75
75196;BME280;63773;42.282;22.782;2023-04-15T02:15:16;95760.56;;;5.63;74.04
75196;BME280;63773;42.282;22.782;2023-04-15T02:17:42;95774.56;;;5.38;74.60
75196;BME280;63773;42.282;22.782;2023-04-15T02:20:10;95762.22;;;4.29;76.66
75196;BME280;63773;42.282;22.782;2023-04-15T02:22:36;95762.22;;;4.29;76.66
75196;BME280;63773;42.282;22.782;2023-04-15T02:25:01;95751.06;;;4.65;77.32
75196;BME280;63773;42.282;22.782;2023-04-15T02:27:27;95764.41;;;4.16;78.49
75196;BME280;63773;42.282;22.782;2023-04-15T02:29:53;95764.75;;;4.59;78.23
75196;BME280;63773;42.282;22.782;2023-04-15T02:32:18;95775.47;;;4.82;76.76
75196;BME280;63773;42.282;22.782;2023-04-15T02:34:45;95786.97;;;4.89;76.49
75196;BME280;63773;42.282;22.782;2023-04-15T02:37:12;95785.88;;;4.74;76.66
75196;BME280;63773;42.282;22.782;2023-04-15T02:39:37;95785.28;;;4.72;77.64
75196;BME280;63773;42.282;22.782;2023-04-15T02:42:03;95693.06;;;4.10;77.96
75196;BME280;63773;42.282;22.782;2023-04-15T02:44:30;95795.06;;;4.73;77.21
75196;BME280;63773;42.282;22.782;2023-04-15T02:46:57;95795.66;;;4.75;77.84
75196;BME280;63773;42.282;22.782;2023-04-15T02:49:23;95802.03;;;4.68;78.13
75196;BME280;63773;42.282;22.782;2023-04-15T02:51:49;95795.69;;;4.63;78.09
75196;BME280;63773;42.282;22.782;2023-04-15T02:54:19;95774.56;;;4.48;77.06
75196;BME280;63773;42.282;22.782;2023-04-15T02:56:44;95819.91;;;4.41;77.32
75196;BME280;63773;42.282;22.782;2023-04-15T02:59:11;95820.19;;;4.68;77.44
75196;BME280;63773;42.282;22.782;2023-04-15T03:01:36;95791.09;;;4.24;77.29
75196;BME280;63773;42.282;22.782;2023-04-15T03:04:02;95823.78;;;4.57;77.28
75196;BME280;63773;42.282;22.782;2023-04-15T03:06:27;95814.94;;;4.50;77.04
75196;BME280;63773;42.282;22.782;2023-04-15T03:08:53;95834.47;;;3.89;78.15
75196;BME280;63773;42.282;22.782;2023-04-15T03:11:18;95842.56;;;4.24;76.85
75196;BME280;63773;42.282;22.782;2023-04-15T03:13:44;95838.53;;;4.38;76.82
75196;BME280;63773;42.282;22.782;2023-04-15T03:16:09;95851.03;;;4.27;76.36
75196;BME280;63773;42.282;22.782;2023-04-15T03:18:35;95849.25;;;4.33;75.02
75196;BME280;63773;42.282;22.782;2023-04-15T03:21:01;95830.22;;;4.16;75.52
75196;BME280;63773;42.282;22.782;2023-04-15T03:23:27;95850.19;;;4.38;75.73
75196;BME280;63773;42.282;22.782;2023-04-15T03:25:52;95851.13;;;4.44;75.64
75196;BME280;63773;42.282;22.782;2023-04-15T03:28:20;95843.44;;;4.52;75.73
75196;BME280;63773;42.282;22.782;2023-04-15T03:30:45;95835.66;;;4.56;75.03
75196;BME280;63773;42.282;22.782;2023-04-15T03:33:10;95833.31;;;4.59;75.01
75196;BME280;63773;42.282;22.782;2023-04-15T03:35:36;95826.47;;;4.57;74.44
75196;BME280;63773;42.282;22.782;2023-04-15T03:38:02;95838.59;;;4.54;74.48
75196;BME280;63773;42.282;22.782;2023-04-15T03:40:27;95845.44;;;4.57;75.99
75196;BME280;63773;42.282;22.782;2023-04-15T03:42:53;95842.97;;;4.55;75.39
75196;BME280;63773;42.282;22.782;2023-04-15T03:45:18;95804.16;;;4.27;75.33
75196;BME280;63773;42.282;22.782;2023-04-15T03:47:43;95836.75;;;4.43;74.75
75196;BME280;63773;42.282;22.782;2023-04-15T03:50:09;95849.94;;;4.51;74.88
75196;BME280;63773;42.282;22.782;2023-04-15T03:52:35;95855.97;;;4.42;75.80
75196;BME280;63773;42.282;22.782;2023-04-15T03:55:00;95855.72;;;4.43;75.10
75196;BME280;63773;42.282;22.782;2023-04-15T03:57:26;95850.00;;;4.17;76.41
75196;BME280;63773;42.282;22.782;2023-04-15T03:59:51;95851.66;;;4.18;76.96
75196;BME280;63773;42.282;22.782;2023-04-15T04:02:17;95851.50;;;4.24;77.31
75196;BME280;63773;42.282;22.782;2023-04-15T04:04:42;95845.25;;;4.35;75.03
75196;BME280;63773;42.282;22.782;2023-04-15T04:07:14;95858.31;;;4.27;74.81
75196;BME280;63773;42.282;22.782;2023-04-15T04:09:39;95861.03;;;4.15;74.47
75196;BME280;63773;42.282;22.782;2023-04-15T04:12:06;95858.22;;;4.22;75.08
75196;BME280;63773;42.282;22.782;2023-04-15T04:14:31;95864.47;;;4.22;75.73
75196;BME280;63773;42.282;22.782;2023-04-15T04:16:58;95869.25;;;4.43;75.14
75196;BME280;63773;42.282;22.782;2023-04-15T04:19:23;95879.53;;;4.30;76.81
75196;BME280;63773;42.282;22.782;2023-04-15T04:21:50;95838.81;;;4.01;76.79
75196;BME280;63773;42.282;22.782;2023-04-15T04:24:15;95877.06;;;4.40;76.58
75196;BME280;63773;42.282;22.782;2023-04-15T04:26:41;95883.06;;;4.42;76.82
75196;BME280;63773;42.282;22.782;2023-04-15T04:29:06;95865.97;;;4.41;76.94
75196;BME280;63773;42.282;22.782;2023-04-15T04:31:32;95888.63;;;4.75;76.07
75196;BME280;63773;42.282;22.782;2023-04-15T04:33:57;95897.13;;;4.67;76.47
75196;BME280;63773;42.282;22.782;2023-04-15T04:36:23;95906.53;;;4.76;76.54
75196;BME280;63773;42.282;22.782;2023-04-15T04:38:48;95898.97;;;4.90;76.49
75196;BME280;63773;42.282;22.782;2023-04-15T04:41:13;95912.34;;;4.68;78.62
75196;BME280;63773;42.282;22.782;2023-04-15T04:43:39;95911.81;;;4.83;77.63
75196;BME280;63773;42.282;22.782;2023-04-15T04:46:04;95904.88;;;5.15;76.97
75196;BME280;63773;42.282;22.782;2023-04-15T04:48:30;95896.16;;;5.13;77.32
75196;BME280;63773;42.282;22.782;2023-04-15T04:50:55;95911.09;;;5.27;77.00
75196;BME280;63773;42.282;22.782;2023-04-15T04:53:21;95915.63;;;5.38;77.52
75196;BME280;63773;42.282;22.782;2023-04-15T04:55:46;95920.53;;;5.24;77.70
75196;BME280;63773;42.282;22.782;2023-04-15T04:58:11;95919.31;;;5.32;76.57
75196;BME280;63773;42.282;22.782;2023-04-15T05:00:37;95928.34;;;5.66;75.72
75196;BME280;63773;42.282;22.782;2023-04-15T05:03:03;95929.03;;;5.45;76.52
75196;BME280;63773;42.282;22.782;2023-04-15T05:05:28;95917.00;;;5.69;75.68
75196;BME280;63773;42.282;22.782;2023-04-15T05:07:54;95921.91;;;6.00;75.35
75196;BME280;63773;42.282;22.782;2023-04-15T05:10:19;95871.91;;;5.84;74.62
75196;BME280;63773;42.282;22.782;2023-04-15T05:12:45;95924.38;;;6.18;74.73
75196;BME280;63773;42.282;22.782;2023-04-15T05:15:10;95927.41;;;6.38;73.87
75196;BME280;63773;42.282;22.782;2023-04-15T05:17:36;95932.47;;;6.68;73.54
75196;BME280;63773;42.282;22.782;2023-04-15T05:20:02;95939.66;;;6.41;73.66
75196;BME280;63773;42.282;22.782;2023-04-15T05:22:28;95945.22;;;6.68;73.23
75196;BME280;63773;42.282;22.782;2023-04-15T05:24:53;95914.09;;;6.59;72.81
75196;BME280;63773;42.282;22.782;2023-04-15T05:27:19;95937.84;;;6.85;73.57
75196;BME280;63773;42.282;22.782;2023-04-15T05:29:45;95947.22;;;6.94;72.72
75196;BME280;63773;42.282;22.782;2023-04-15T05:32:10;95951.34;;;6.96;73.33
75196;BME280;63773;42.282;22.782;2023-04-15T05:34:36;95948.34;;;6.98;74.12
75196;BME280;63773;42.282;22.782;2023-04-15T05:37:01;95926.75;;;7.35;72.44
75196;BME280;63773;42.282;22.782;2023-04-15T05:39:27;95923.72;;;7.53;70.74
75196;BME280;63773;42.282;22.782;2023-04-15T05:41:52;95925.75;;;7.41;70.73
75196;BME280;63773;42.282;22.782;2023-04-15T05:44:18;95932.78;;;7.90;70.38
75196;BME280;63773;42.282;22.782;2023-04-15T05:46:43;95938.22;;;7.90;70.17
75196;BME280;63773;42.282;22.782;2023-04-15T05:49:09;95951.69;;;8.29;68.54
75196;BME280;63773;42.282;22.782;2023-04-15T05:51:34;95914.75;;;8.48;66.07
75196;BME280;63773;42.282;22.782;2023-04-15T05:54:00;95938.38;;;8.74;66.32
75196;BME280;63773;42.282;22.782;2023-04-15T05:56:26;95941.88;;;9.11;66.44
75196;BME280;63773;42.282;22.782;2023-04-15T05:58:51;95921.19;;;9.31;65.42
75196;BME280;63773;42.282;22.782;2023-04-15T06:01:17;95941.53;;;9.70;64.83
75196;BME280;63773;42.282;22.782;2023-04-15T06:03:42;95939.56;;;9.45;64.26
75196;BME280;63773;42.282;22.782;2023-04-15T06:06:09;95942.31;;;9.60;65.35
75196;BME280;63773;42.282;22.782;2023-04-15T06:08:34;95936.13;;;9.90;63.65
75196;BME280;63773;42.282;22.782;2023-04-15T06:11:00;95940.75;;;9.84;63.46
75196;BME280;63773;42.282;22.782;2023-04-15T06:13:25;95938.28;;;9.78;63.55
75196;BME280;63773;42.282;22.782;2023-04-15T06:15:51;95950.19;;;9.42;65.10
75196;BME280;63773;42.282;22.782;2023-04-15T06:18:17;95951.78;;;9.27;65.42
75196;BME280;63773;42.282;22.782;2023-04-15T06:20:44;95951.94;;;9.73;64.61
75196;BME280;63773;42.282;22.782;2023-04-15T06:23:10;95948.44;;;9.98;63.75
75196;BME280;63773;42.282;22.782;2023-04-15T06:25:36;95949.75;;;9.80;64.95
75196;BME280;63773;42.282;22.782;2023-04-15T06:28:01;95954.25;;;10.21;63.40
75196;BME280;63773;42.282;22.782;2023-04-15T06:30:27;95952.31;;;10.32;62.27
75196;BME280;63773;42.282;22.782;2023-04-15T06:32:53;95928.25;;;10.29;61.95
75196;BME280;63773;42.282;22.782;2023-04-15T06:35:19;95950.41;;;10.42;62.91
75196;BME280;63773;42.282;22.782;2023-04-15T06:37:44;95957.50;;;10.54;61.84
75196;BME280;63773;42.282;22.782;2023-04-15T06:40:10;95952.00;;;10.89;62.07
75196;BME280;63773;42.282;22.782;2023-04-15T06:42:36;95951.69;;;11.11;60.62
75196;BME280;63773;42.282;22.782;2023-04-15T06:45:02;95915.84;;;10.97;60.40
75196;BME280;63773;42.282;22.782;2023-04-15T06:47:28;95939.81;;;11.35;60.73
75196;BME280;63773;42.282;22.782;2023-04-15T06:49:53;95957.41;;;11.88;58.43
75196;BME280;63773;42.282;22.782;2023-04-15T06:52:19;95946.94;;;12.00;60.18
75196;BME280;63773;42.282;22.782;2023-04-15T06:54:44;95946.94;;;12.00;60.18
75196;BME280;63773;42.282;22.782;2023-04-15T06:57:10;95939.13;;;12.18;57.56
75196;BME280;63773;42.282;22.782;2023-04-15T06:59:35;95937.91;;;12.34;58.87
75196;BME280;63773;42.282;22.782;2023-04-15T07:02:01;95939.44;;;12.50;58.75
75196;BME280;63773;42.282;22.782;2023-04-15T07:04:26;95932.19;;;12.64;56.36
75196;BME280;63773;42.282;22.782;2023-04-15T07:06:52;95935.91;;;12.78;57.00
75196;BME280;63773;42.282;22.782;2023-04-15T07:09:19;95932.09;;;13.03;57.23
75196;BME280;63773;42.282;22.782;2023-04-15T07:11:45;95919.25;;;13.22;57.97
75196;BME280;63773;42.282;22.782;2023-04-15T07:14:13;95928.84;;;13.24;55.68
75196;BME280;63773;42.282;22.782;2023-04-15T07:16:38;95927.63;;;13.59;55.09
75196;BME280;63773;42.282;22.782;2023-04-15T07:19:03;95922.94;;;13.60;54.17
75196;BME280;63773;42.282;22.782;2023-04-15T07:21:29;95919.34;;;14.02;55.38
75196;BME280;63773;42.282;22.782;2023-04-15T07:23:54;95921.19;;;14.25;54.16
75196;BME280;63773;42.282;22.782;2023-04-15T07:26:20;95929.50;;;14.57;55.22
75196;BME280;63773;42.282;22.782;2023-04-15T07:28:45;95928.03;;;14.09;53.68
75196;BME280;63773;42.282;22.782;2023-04-15T07:31:12;95933.41;;;14.37;53.49
75196;BME280;63773;42.282;22.782;2023-04-15T07:33:37;95903.19;;;13.95;52.04
75196;BME280;63773;42.282;22.782;2023-04-15T07:36:03;95933.53;;;14.65;52.47
75196;BME280;63773;42.282;22.782;2023-04-15T07:38:28;95903.44;;;14.68;52.23
75196;BME280;63773;42.282;22.782;2023-04-15T07:40:54;95926.47;;;15.04;50.27
75196;BME280;63773;42.282;22.782;2023-04-15T07:43:20;95926.94;;;15.25;50.89
75196;BME280;63773;42.282;22.782;2023-04-15T07:45:46;95929.47;;;15.22;51.04
75196;BME280;63773;42.282;22.782;2023-04-15T07:48:11;95921.97;;;15.68;48.64
75196;BME280;63773;42.282;22.782;2023-04-15T07:50:37;95920.91;;;15.37;48.64
75196;BME280;63773;42.282;22.782;2023-04-15T07:53:02;95922.09;;;15.49;48.45
75196;BME280;63773;42.282;22.782;2023-04-15T07:55:28;95928.38;;;15.91;47.78
75196;BME280;63773;42.282;22.782;2023-04-15T07:57:54;95897.31;;;16.21;48.25
75196;BME280;63773;42.282;22.782;2023-04-15T08:00:20;95917.56;;;16.52;44.66
75196;BME280;63773;42.282;22.782;2023-04-15T08:02:46;95916.81;;;16.02;42.17
75196;BME280;63773;42.282;22.782;2023-04-15T08:05:12;95896.00;;;16.18;44.20
75196;BME280;63773;42.282;22.782;2023-04-15T08:07:39;95915.22;;;16.46;44.02
75196;BME280;63773;42.282;22.782;2023-04-15T08:10:05;95913.63;;;16.45;43.98
75196;BME280;63773;42.282;22.782;2023-04-15T08:12:31;95893.03;;;16.51;45.25
75196;BME280;63773;42.282;22.782;2023-04-15T08:14:56;95913.16;;;16.65;42.14
75196;BME280;63773;42.282;22.782;2023-04-15T08:17:22;95913.41;;;16.19;43.67
75196;BME280;63773;42.282;22.782;2023-04-15T08:19:48;95897.97;;;16.40;43.46
75196;BME280;63773;42.282;22.782;2023-04-15T08:22:14;95878.53;;;16.45;42.09
75196;BME280;63773;42.282;22.782;2023-04-15T08:24:39;95901.19;;;17.00;42.78
75196;BME280;63773;42.282;22.782;2023-04-15T08:27:05;95887.31;;;17.22;39.26
75196;BME280;63773;42.282;22.782;2023-04-15T08:29:32;95884.63;;;17.09;39.33
75196;BME280;63773;42.282;22.782;2023-04-15T08:31:58;95859.13;;;16.81;41.24
75196;BME280;63773;42.282;22.782;2023-04-15T08:34:25;95884.56;;;17.62;39.86
75196;BME280;63773;42.282;22.782;2023-04-15T08:36:51;95869.94;;;17.30;37.68
75196;BME280;63773;42.282;22.782;2023-04-15T08:39:16;95877.56;;;16.94;37.30
75196;BME280;63773;42.282;22.782;2023-04-15T08:41:59;95878.75;;;17.33;39.04
75196;BME280;63773;42.282;22.782;2023-04-15T08:44:29;95861.25;;;17.15;39.23
75196;BME280;63773;42.282;22.782;2023-04-15T08:46:56;95873.06;;;17.38;38.08
75196;BME280;63773;42.282;22.782;2023-04-15T08:49:25;95866.09;;;18.05;37.42
75196;BME280;63773;42.282;22.782;2023-04-15T08:51:51;95875.19;;;17.80;35.88
75196;BME280;63773;42.282;22.782;2023-04-15T08:54:17;95879.28;;;18.00;36.85
75196;BME280;63773;42.282;22.782;2023-04-15T08:56:43;95870.66;;;18.10;36.61
75196;BME280;63773;42.282;22.782;2023-04-15T08:59:09;95874.13;;;18.50;36.23
75196;BME280;63773;42.282;22.782;2023-04-15T09:01:36;95863.19;;;18.27;35.05
75196;BME280;63773;42.282;22.782;2023-04-15T09:04:02;95873.09;;;18.80;35.48
75196;BME280;63773;42.282;22.782;2023-04-15T09:06:32;95878.31;;;18.90;33.24
75196;BME280;63773;42.282;22.782;2023-04-15T09:08:57;95874.97;;;19.22;31.85
75196;BME280;63773;42.282;22.782;2023-04-15T09:11:22;95846.19;;;19.44;33.53
75196;BME280;63773;42.282;22.782;2023-04-15T09:13:49;95865.94;;;18.79;31.72
75196;BME280;63773;42.282;22.782;2023-04-15T09:16:14;95871.19;;;19.27;31.38
75196;BME280;63773;42.282;22.782;2023-04-15T09:18:40;95844.94;;;18.52;32.29
75196;BME280;63773;42.282;22.782;2023-04-15T09:23:37;95869.81;;;19.03;34.16
75196;BME280;63773;42.282;22.782;2023-04-15T09:26:03;95873.16;;;18.54;32.99
75196;BME280;63773;42.282;22.782;2023-04-15T09:28:30;95864.19;;;18.49;34.04
75196;BME280;63773;42.282;22.782;2023-04-15T09:31:00;95857.19;;;18.60;32.96
75196;BME280;63773;42.282;22.782;2023-04-15T09:33:27;95862.84;;;18.63;32.13
75196;BME280;63773;42.282;22.782;2023-04-15T09:36:04;95857.50;;;19.68;33.19
75196;BME280;63773;42.282;22.782;2023-04-15T09:38:31;95843.03;;;19.54;31.20
75196;BME280;63773;42.282;22.782;2023-04-15T09:40:57;95842.47;;;18.76;32.88
75196;BME280;63773;42.282;22.782;2023-04-15T09:43:39;95848.03;;;18.42;31.91
75196;BME280;63773;42.282;22.782;2023-04-15T09:46:05;95832.84;;;18.74;32.53
75196;BME280;63773;42.282;22.782;2023-04-15T09:48:30;95824.00;;;18.89;32.39
75196;BME280;63773;42.282;22.782;2023-04-15T09:50:59;95841.78;;;19.43;31.80
75196;BME280;63773;42.282;22.782;2023-04-15T09:53:26;95846.75;;;19.20;32.48
75196;BME280;63773;42.282;22.782;2023-04-15T09:55:57;95842.72;;;19.55;32.58
75196;BME280;63773;42.282;22.782;2023-04-15T09:58:24;95832.41;;;19.85;31.69
75196;BME280;63773;42.282;22.782;2023-04-15T10:00:51;95833.41;;;19.81;31.14
75196;BME280;63773;42.282;22.782;2023-04-15T10:03:32;95838.31;;;18.99;31.38
75196;BME280;63773;42.282;22.782;2023-04-15T10:06:00;95847.59;;;19.58;31.57
75196;BME280;63773;42.282;22.782;2023-04-15T10:08:30;95846.78;;;19.58;30.77
75196;BME280;63773;42.282;22.782;2023-04-15T10:10:57;95849.47;;;19.29;30.14
75196;BME280;63773;42.282;22.782;2023-04-15T10:13:25;95836.88;;;19.02;29.46
75196;BME280;63773;42.282;22.782;2023-04-15T10:15:58;95837.28;;;19.59;30.70
75196;BME280;63773;42.282;22.782;2023-04-15T10:18:26;95834.13;;;20.19;30.38
75196;BME280;63773;42.282;22.782;2023-04-15T10:20:52;95839.22;;;20.58;28.64
75196;BME280;63773;42.282;22.782;2023-04-15T10:23:19;95797.41;;;20.34;28.44
75196;BME280;63773;42.282;22.782;2023-04-15T10:25:45;95827.31;;;20.70;28.71
75196;BME280;63773;42.282;22.782;2023-04-15T10:28:11;95830.28;;;20.53;28.50
75196;BME280;63773;42.282;22.782;2023-04-15T10:30:37;95836.34;;;20.67;27.23
75196;BME280;63773;42.282;22.782;2023-04-15T10:33:04;95833.75;;;20.83;28.00
75196;BME280;63773;42.282;22.782;2023-04-15T10:35:31;95805.03;;;19.96;27.34
75196;BME280;63773;42.282;22.782;2023-04-15T10:37:58;95827.56;;;20.24;28.55
75196;BME280;63773;42.282;22.782;2023-04-15T10:40:24;95825.16;;;20.13;27.56
75196;BME280;63773;42.282;22.782;2023-04-15T10:42:53;95814.97;;;20.26;27.99
75196;BME280;63773;42.282;22.782;2023-04-15T10:45:18;95822.38;;;20.55;26.78
75196;BME280;63773;42.282;22.782;2023-04-15T10:47:44;95813.38;;;20.16;27.95
75196;BME280;63773;42.282;22.782;2023-04-15T10:50:09;95816.22;;;20.08;27.35
75196;BME280;63773;42.282;22.782;2023-04-15T10:52:39;95817.56;;;19.52;26.71
75196;BME280;63773;42.282;22.782;2023-04-15T10:55:18;95820.66;;;19.80;28.72
75196;BME280;63773;42.282;22.782;2023-04-15T10:57:44;95806.19;;;19.36;26.19
75196;BME280;63773;42.282;22.782;2023-04-15T11:00:14;95813.59;;;19.62;28.51
75196;BME280;63773;42.282;22.782;2023-04-15T11:05:14;95815.69;;;20.14;26.15
75196;BME280;63773;42.282;22.782;2023-04-15T11:12:42;95819.28;;;20.56;26.43
75196;BME280;63773;42.282;22.782;2023-04-15T11:17:51;95812.94;;;21.01;29.02
75196;BME280;63773;42.282;22.782;2023-04-15T11:20:17;95818.53;;;20.80;24.87
75196;BME280;63773;42.282;22.782;2023-04-15T11:22:49;95818.91;;;20.79;27.32
75196;BME280;63773;42.282;22.782;2023-04-15T11:25:27;95815.72;;;21.01;25.99
75196;BME280;63773;42.282;22.782;2023-04-15T11:27:54;95810.06;;;21.09;25.46
75196;BME280;63773;42.282;22.782;2023-04-15T11:30:22;95811.38;;;20.79;26.13
75196;BME280;63773;42.282;22.782;2023-04-15T11:32:48;95810.81;;;20.32;26.07
75196;BME280;63773;42.282;22.782;2023-04-15T11:35:15;95814.66;;;20.19;26.29
75196;BME280;63773;42.282;22.782;2023-04-15T11:37:41;95823.09;;;20.52;27.87
75196;BME280;63773;42.282;22.782;2023-04-15T11:40:07;95812.75;;;20.73;26.55
75196;BME280;63773;42.282;22.782;2023-04-15T11:42:33;95810.94;;;20.56;26.67
75196;BME280;63773;42.282;22.782;2023-04-15T11:45:14;95807.00;;;20.90;27.16
75196;BME280;63773;42.282;22.782;2023-04-15T11:47:41;95810.47;;;20.87;26.28
75196;BME280;63773;42.282;22.782;2023-04-15T11:50:22;95817.16;;;20.86;25.82
75196;BME280;63773;42.282;22.782;2023-04-15T11:52:54;95790.34;;;21.02;28.39
75196;BME280;63773;42.282;22.782;2023-04-15T11:55:21;95813.41;;;20.70;27.51
75196;BME280;63773;42.282;22.782;2023-04-15T11:57:49;95791.72;;;20.31;28.57
75196;BME280;63773;42.282;22.782;2023-04-15T12:00:15;95804.09;;;20.12;28.00
75196;BME280;63773;42.282;22.782;2023-04-15T12:02:42;95808.66;;;20.17;28.26
75196;BME280;63773;42.282;22.782;2023-04-15T12:05:08;95775.09;;;20.01;27.83
75196;BME280;63773;42.282;22.782;2023-04-15T12:07:57;95804.19;;;20.25;31.24
75196;BME280;63773;42.282;22.782;2023-04-15T12:10:25;95811.84;;;20.28;29.18
75196;BME280;63773;42.282;22.782;2023-04-15T12:12:54;95802.88;;;20.22;28.79
75196;BME280;63773;42.282;22.782;2023-04-15T12:15:23;95800.38;;;20.50;29.73
75196;BME280;63773;42.282;22.782;2023-04-15T12:17:48;95801.88;;;20.27;29.52
75196;BME280;63773;42.282;22.782;2023-04-15T12:20:24;95805.06;;;20.16;27.97
75196;BME280;63773;42.282;22.782;2023-04-15T12:22:50;95803.13;;;20.38;29.72
75196;BME280;63773;42.282;22.782;2023-04-15T12:25:15;95781.41;;;20.52;29.04
75196;BME280;63773;42.282;22.782;2023-04-15T12:27:41;95799.50;;;20.70;27.54
75196;BME280;63773;42.282;22.782;2023-04-15T12:30:07;95800.66;;;20.69;28.16
75196;BME280;63773;42.282;22.782;2023-04-15T12:32:36;95781.03;;;20.53;29.15
75196;BME280;63773;42.282;22.782;2023-04-15T12:35:01;95797.41;;;20.34;28.25
75196;BME280;63773;42.282;22.782;2023-04-15T12:37:47;95801.59;;;19.99;29.19
75196;BME280;63773;42.282;22.782;2023-04-15T12:40:12;95793.38;;;19.82;28.06
75196;BME280;63773;42.282;22.782;2023-04-15T12:42:38;95789.47;;;20.03;27.17
75196;BME280;63773;42.282;22.782;2023-04-15T12:45:03;95795.53;;;20.59;26.95
75196;BME280;63773;42.282;22.782;2023-04-15T12:47:29;95778.22;;;20.41;26.28
75196;BME280;63773;42.282;22.782;2023-04-15T12:49:54;95787.28;;;19.88;26.00
75196;BME280;63773;42.282;22.782;2023-04-15T12:52:20;95787.41;;;19.71;25.06
75196;BME280;63773;42.282;22.782;2023-04-15T12:54:46;95791.63;;;19.77;26.53
75196;BME280;63773;42.282;22.782;2023-04-15T12:57:11;95792.56;;;20.02;25.49
75196;BME280;63773;42.282;22.782;2023-04-15T12:59:36;95791.75;;;20.22;27.04
75196;BME280;63773;42.282;22.782;2023-04-15T13:02:03;95775.84;;;20.52;25.83
75196;BME280;63773;42.282;22.782;2023-04-15T13:04:28;95795.78;;;20.33;24.71
75196;BME280;63773;42.282;22.782;2023-04-15T13:06:54;95790.81;;;20.18;25.59